This is the latest recevied weather packets stored in our database for station/object N4HAC. If no packets are shown the sender has not sent any weather packets the latest 10 day(s).
| Time | Temp. | Humidity | Pressure | Rain* | Wind** | Luminosity | Snow |
|---|---|---|---|---|---|---|---|
| 1777821310 | 10° C | 42% | 1012.4 hPa | 0 mm | - | 243 W/m² | - |
| 1777821006 | 11.11° C | 46% | 1012.1 hPa | 0 mm | - | 288 W/m² | - |
| 1777820702 | 11.11° C | 41% | 1012.3 hPa | 0 mm | - | 862 W/m² | - |
| 1777820398 | 10.56° C | 43% | 1012.4 hPa | 0 mm | - | 824 W/m² | - |
| 1777820095 | 10.56° C | 47% | 1012.2 hPa | 0 mm | - | 211 W/m² | - |
| 1777819793 | 10° C | 43% | 1012.2 hPa | 0 mm | - | 782 W/m² | - |
| 1777819491 | 10° C | 45% | 1012.5 hPa | 0 mm | - | 763 W/m² | - |
| 1777819189 | 10° C | 47% | 1012.2 hPa | 0 mm | - | 760 W/m² | - |
| 1777818885 | 10.56° C | 46% | 1012.5 hPa | 0 mm | - | 747 W/m² | - |
| 1777818581 | 10.56° C | 49% | 1012.3 hPa | 0 mm | - | 725 W/m² | - |
| 1777818279 | 10° C | 47% | 1012.4 hPa | 0 mm | - | 707 W/m² | - |
| 1777817975 | 10° C | 47% | 1012.4 hPa | 0 mm | - | 700 W/m² | - |
| 1777817672 | 9.44° C | 48% | 1012.3 hPa | 0 mm | - | 704 W/m² | - |
| 1777817369 | 9.44° C | 48% | 1012.6 hPa | 0 mm | - | 682 W/m² | - |
| 1777817066 | 8.89° C | 50% | 1012.5 hPa | 0 mm | - | 650 W/m² | - |
| 1777816762 | 8.89° C | 50% | 1012.4 hPa | 0 mm | - | 645 W/m² | - |
| 1777816460 | 8.89° C | 49% | 1012.4 hPa | 0 mm | - | 644 W/m² | - |
| 1777816157 | 9.44° C | 52% | 1012.3 hPa | 0 mm | - | 616 W/m² | - |
| 1777815855 | 8.89° C | 49% | 1012.5 hPa | 0 mm | - | 604 W/m² | - |
| 1777815552 | 8.89° C | 50% | 1012.3 hPa | 0 mm | - | 602 W/m² | - |
| 1777815250 | 8.33° C | 51% | 1012.3 hPa | 0 mm | - | 583 W/m² | - |
| 1777814945 | 8.33° C | 53% | 1012.3 hPa | 0 mm | - | 556 W/m² | - |
| 1777814642 | 8.89° C | 52% | 1012.5 hPa | 0 mm | - | 358 W/m² | - |
| 1777814339 | 8.89° C | 53% | 1012.5 hPa | 0 mm | - | 514 W/m² | - |
| 1777814035 | 8.33° C | 55% | 1012.4 hPa | 0 mm | - | 495 W/m² | - |
* Rain latest hour (hover to see other rain measurements)
** Current wind speed in m/s (hover to see current wind gust speed)